Kimberley Airport


Codes: FAKM/KIM
Name: Kimberley Airport
City: Kimberley
Country: South Africa
Elevation: 3950 ft.
Wikipedia:

Photos at Kimberley Airport


   Photos courtesy of SpottingLog. You can add your own sightings and photos by signing up for a free trial today.



No photos found.

Weather at Kimberley Airport


Time (UTC)DescriptionTempratureWindCloud coverageVisibilityPressureHumidity
21-Feb-2024 03:00Broken Clouds21°C11 mph, N67%10000m1014hPa28%
21-Feb-2024 06:00Broken Clouds23°C9 mph, N64%10000m1013hPa25%
21-Feb-2024 09:00Scattered Clouds31°C11 mph, NW40%10000m1010hPa19%
21-Feb-2024 12:00Scattered Clouds36°C4 mph, NW46%10000m1005hPa15%
21-Feb-2024 15:00Scattered Clouds33°C13 mph, SW47%10000m1005hPa19%
21-Feb-2024 18:00Light Rain30°C9 mph, N74%10000m1006hPa22%
21-Feb-2024 21:00Broken Clouds24°C9 mph, N81%10000m1009hPa37%
22-Feb-2024 00:00Broken Clouds22°C11 mph, NW74%10000m1009hPa28%
22-Feb-2024 03:00Overcast Clouds20°C7 mph, NW92%10000m1009hPa24%
22-Feb-2024 06:00Scattered Clouds25°C7 mph, NW49%10000m1010hPa20%
22-Feb-2024 09:00Clear Sky33°C9 mph, W2%10000m1008hPa11%
22-Feb-2024 12:00Clear Sky36°C11 mph, W1%10000m1005hPa10%
22-Feb-2024 15:00Clear Sky37°C22 mph, W3%10000m1003hPa9%
22-Feb-2024 18:00Clear Sky29°C16 mph, SW1%10000m1006hPa11%
22-Feb-2024 21:00Clear Sky25°C13 mph, SW0%10000m1009hPa12%
23-Feb-2024 00:00Clear Sky21°C4 mph, NE0%10000m1009hPa11%
23-Feb-2024 03:00Clear Sky20°C7 mph, N2%10000m1009hPa17%
23-Feb-2024 06:00Clear Sky27°C7 mph, NE1%10000m1010hPa12%
23-Feb-2024 09:00Clear Sky34°C18 mph, N0%10000m1008hPa16%
23-Feb-2024 12:00Few Clouds37°C13 mph, NW14%10000m1004hPa14%
23-Feb-2024 15:00Light Rain32°C11 mph, S98%10000m1004hPa23%
23-Feb-2024 18:00Light Rain26°C11 mph, N99%10000m1008hPa36%
23-Feb-2024 21:00Overcast Clouds24°C16 mph, N99%10000m1011hPa46%
24-Feb-2024 00:00Overcast Clouds22°C18 mph, N99%10000m1009hPa56%
24-Feb-2024 03:00Scattered Clouds20°C9 mph, N47%10000m1011hPa62%
24-Feb-2024 06:00Broken Clouds24°C20 mph, N71%10000m1012hPa49%
24-Feb-2024 09:00Broken Clouds33°C27 mph, NW59%10000m1010hPa29%
24-Feb-2024 12:00Scattered Clouds37°C22 mph, NW39%10000m1006hPa18%
24-Feb-2024 15:00Overcast Clouds36°C18 mph, NW85%10000m1004hPa15%
24-Feb-2024 18:00Broken Clouds31°C22 mph, SW61%10000m1007hPa15%
24-Feb-2024 21:00Broken Clouds23°C2 mph, NW70%10000m1012hPa17%
25-Feb-2024 00:00Broken Clouds22°C7 mph, SW59%10000m1013hPa13%
25-Feb-2024 03:00Clear Sky19°C7 mph, SW5%10000m1013hPa11%
25-Feb-2024 06:00Clear Sky23°C7 mph, SW7%10000m1015hPa11%
25-Feb-2024 09:00Clear Sky32°C9 mph, SW2%10000m1013hPa8%
25-Feb-2024 12:00Clear Sky35°C18 mph, W2%10000m1011hPa8%
25-Feb-2024 15:00Broken Clouds34°C18 mph, SW53%10000m1010hPa10%
25-Feb-2024 18:00Scattered Clouds27°C13 mph, SW28%10000m1012hPa11%
25-Feb-2024 21:00Clear Sky23°C13 mph, S0%10000m1014hPa18%
26-Feb-2024 00:00Clear Sky20°C16 mph, SE0%10000m1015hPa44%